Time;durP1;ratioP1;P1;durP2;ratioP2;P2;SDS_P1;SDS_P2;PMS_P1;PMS_P2;Temp;Humidity;BMP_temperature;BMP_pressure;BME280_temperature;BME280_humidity;BME280_pressure;Samples;Min_cycle;Max_cycle;Signal;HPM_P1;HPM_P2
2022/05/19 00:02:10;;;;;;;46.63;35.38;;;17.00;99.90;;;;;;5137150;27;20082;-69
2022/05/19 00:04:35;;;;;;;53.08;36.45;;;16.90;99.90;;;;;;5137088;27;20047;-70
2022/05/19 00:07:02;;;;;;;50.88;35.63;;;16.90;99.90;;;;;;5137012;27;20043;-71
2022/05/19 00:09:27;;;;;;;49.00;37.15;;;16.90;99.90;;;;;;5136852;27;20461;-70
2022/05/19 00:11:55;;;;;;;50.10;34.90;;;16.90;99.90;;;;;;5119014;27;20103;-72
2022/05/19 00:14:22;;;;;;;45.55;36.95;;;16.90;99.90;;;;;;5137045;27;20126;-69
2022/05/19 00:16:48;;;;;;;45.95;36.70;;;16.80;99.90;;;;;;5136763;27;20509;-72
2022/05/19 00:19:14;;;;;;;;;;;16.70;99.90;;;;;;5137289;27;20053;-69
2022/05/19 00:21:40;;;;;;;46.85;36.60;;;16.60;99.90;;;;;;5118226;27;19919;-71
2022/05/19 00:24:06;;;;;;;49.80;37.60;;;16.60;99.90;;;;;;5153303;27;20053;-69
2022/05/19 00:26:32;;;;;;;45.80;35.83;;;16.60;99.90;;;;;;5137053;27;20050;-70
2022/05/19 00:28:58;;;;;;;47.75;34.83;;;16.60;99.90;;;;;;5101647;27;20405;-70
2022/05/19 00:31:24;;;;;;;49.80;37.03;;;16.60;99.90;;;;;;5136662;27;20039;-70
2022/05/19 00:33:49;;;;;;;54.35;35.60;;;16.60;99.90;;;;;;5136267;27;20096;-71
2022/05/19 00:36:18;;;;;;;45.55;34.90;;;16.60;99.90;;;;;;5117327;27;20088;-70
2022/05/19 00:38:45;;;;;;;48.60;35.95;;;16.60;99.90;;;;;;5101414;27;20047;-71
2022/05/19 00:41:12;;;;;;;53.10;37.88;;;16.60;99.90;;;;;;5136478;27;20059;-70
2022/05/19 00:43:41;;;;;;;46.38;35.53;;;16.60;99.90;;;;;;5136554;27;20497;-69
2022/05/19 00:46:23;;;;;;;46.78;37.90;;;16.60;99.90;;;;;;5136240;27;20493;-71
2022/05/19 00:49:09;;;;;;;45.60;36.40;;;16.60;99.90;;;;;;5136148;27;20120;-71
2022/05/19 00:51:47;;;;;;;48.87;36.10;;;16.60;99.90;;;;;;5118257;27;20099;-70
2022/05/19 00:54:19;;;;;;;46.75;37.05;;;16.60;99.90;;;;;;5136181;27;20047;-71
2022/05/19 00:56:50;;;;;;;46.00;34.63;;;16.60;99.90;;;;;;5136123;27;20089;-69
2022/05/19 00:59:45;;;;;;;47.20;36.97;;;16.60;99.90;;;;;;5135979;27;20100;-71
2022/05/19 01:02:14;;;;;;;49.45;37.33;;;16.60;99.90;;;;;;5135556;27;20069;-71
2022/05/19 01:04:47;;;;;;;43.72;34.85;;;16.50;99.90;;;;;;5135939;27;20507;-70
2022/05/19 01:07:24;;;;;;;48.35;36.28;;;16.60;99.90;;;;;;5135921;27;20493;-72
2022/05/19 01:09:52;;;;;;;45.33;37.05;;;16.60;99.90;;;;;;5135678;27;20043;-71
2022/05/19 01:12:18;;;;;;;46.15;37.33;;;16.50;99.90;;;;;;5136013;27;20117;-72
2022/05/19 01:14:43;;;;;;;51.47;37.88;;;16.70;99.90;;;;;;5135941;27;20047;-71
2022/05/19 01:17:10;;;;;;;50.00;36.70;;;16.60;99.90;;;;;;5116863;27;20134;-72
2022/05/19 01:19:37;;;;;;;;;;;16.60;99.90;;;;;;5136063;27;20043;-69
2022/05/19 01:22:36;;;;;;;50.92;37.72;;;16.60;99.90;;;;;;5135576;27;19919;-71
2022/05/19 01:25:39;;;;;;;52.13;37.53;;;16.60;99.90;;;;;;5117541;27;20058;-70
2022/05/19 01:28:06;;;;;;;51.22;38.83;;;16.50;99.90;;;;;;5135497;27;20485;-70
2022/05/19 01:30:32;;;;;;;59.53;37.95;;;16.60;99.90;;;;;;5135401;27;20042;-71
2022/05/19 01:32:58;;;;;;;59.08;41.65;;;16.50;99.90;;;;;;5117097;27;20051;-72
2022/05/19 01:35:25;;;;;;;56.33;39.97;;;16.50;99.90;;;;;;5135481;27;20035;-72
2022/05/19 01:37:51;;;;;;;53.47;40.30;;;16.50;99.90;;;;;;5117292;27;20051;-70
2022/05/19 01:40:40;;;;;;;58.40;41.65;;;16.50;99.90;;;;;;5134985;27;20039;-71
2022/05/19 01:43:38;;;;;;;59.03;41.67;;;16.50;99.90;;;;;;5135137;27;20200;-70
2022/05/19 01:46:14;;;;;;;53.03;40.95;;;16.50;99.90;;;;;;5116423;27;20047;-72
2022/05/19 01:48:56;;;;;;;58.33;41.80;;;16.40;99.90;;;;;;5116796;27;20050;-72
2022/05/19 01:51:42;;;;;;;63.78;44.25;;;16.40;99.90;;;;;;5135090;27;20273;-72
2022/05/19 01:54:31;;;;;;;60.65;43.63;;;16.40;99.90;;;;;;5117092;27;20079;-70
2022/05/19 01:57:11;;;;;;;55.33;42.35;;;16.40;99.90;;;;;;5135119;27;20500;-70
2022/05/19 02:00:08;;;;;;;57.25;43.05;;;16.40;99.90;;;;;;5151068;27;20057;-70
2022/05/19 02:02:39;;;;;;;57.53;42.97;;;16.40;99.90;;;;;;5134774;27;20184;-72
2022/05/19 02:05:18;;;;;;;57.17;43.58;;;16.40;99.90;;;;;;5116644;27;20060;-69
2022/05/19 02:07:46;;;;;;;61.33;42.30;;;16.40;99.90;;;;;;5116721;27;20117;-72
2022/05/19 02:10:21;;;;;;;56.13;43.00;;;16.30;99.90;;;;;;5150828;27;20074;-69
2022/05/19 02:12:48;;;;;;;62.97;42.33;;;16.30;99.90;;;;;;5134499;27;20043;-71
2022/05/19 02:15:18;;;;;;;57.03;41.88;;;16.30;99.90;;;;;;5116406;27;20039;-71
2022/05/19 02:17:46;;;;;;;56.92;44.55;;;16.30;99.90;;;;;;5116643;27;20100;-70
2022/05/19 02:20:14;;;;;;;62.70;45.95;;;16.30;99.90;;;;;;5134585;27;20072;-69
2022/05/19 02:22:42;;;;;;;63.45;46.45;;;16.30;99.90;;;;;;5134542;27;20094;-69
2022/05/19 02:25:11;;;;;;;58.95;44.58;;;16.30;99.90;;;;;;5134421;27;20054;-71
2022/05/19 02:27:49;;;;;;;66.15;46.00;;;16.20;99.90;;;;;;5134402;27;20051;-68
2022/05/19 02:30:20;;;;;;;69.18;46.75;;;16.20;99.90;;;;;;5116293;27;20451;-70
2022/05/19 02:32:46;;;;;;;65.68;47.75;;;16.20;99.90;;;;;;5134530;27;20371;-70
2022/05/19 02:35:13;;;;;;;61.78;44.05;;;16.20;99.90;;;;;;5134533;27;20047;-72
2022/05/19 02:37:39;;;;;;;65.43;47.08;;;16.20;99.90;;;;;;5134335;27;20054;-71
2022/05/19 02:40:06;;;;;;;61.95;45.63;;;16.20;99.90;;;;;;5134227;27;20043;-70
2022/05/19 02:42:32;;;;;;;65.50;47.55;;;16.10;99.90;;;;;;5134421;27;20063;-70
2022/05/19 02:44:57;;;;;;;60.70;46.90;;;16.20;99.90;;;;;;5134382;28;20405;-70
2022/05/19 02:47:23;;;;;;;68.05;48.75;;;16.20;99.90;;;;;;5134385;28;20046;-71
2022/05/19 02:49:49;;;;;;;63.58;46.80;;;16.20;99.90;;;;;;5116148;28;20619;-69
2022/05/19 02:52:15;;;;;;;62.35;46.97;;;16.10;99.90;;;;;;5116164;28;20085;-69
2022/05/19 02:54:40;;;;;;;68.55;47.10;;;16.20;99.90;;;;;;5134007;28;20035;-71
2022/05/19 02:57:06;;;;;;;70.05;47.85;;;16.20;99.90;;;;;;5152283;27;20074;-69
2022/05/19 02:59:32;;;;;;;64.13;48.30;;;16.20;99.90;;;;;;5120480;27;20120;-70
2022/05/19 03:01:57;;;;;;;66.28;48.65;;;16.10;99.90;;;;;;5138472;27;20039;-69
2022/05/19 03:04:23;;;;;;;66.85;49.80;;;16.10;99.90;;;;;;5138497;27;20038;-71
2022/05/19 03:06:49;;;;;;;65.38;48.58;;;16.10;99.90;;;;;;5138302;27;20493;-72
2022/05/19 03:09:15;;;;;;;61.63;49.10;;;16.10;99.90;;;;;;5119950;27;20078;-69
2022/05/19 03:11:40;;;;;;;70.78;51.63;;;16.10;99.90;;;;;;5119637;27;20047;-71
2022/05/19 03:14:06;;;;;;;69.82;49.60;;;16.00;99.90;;;;;;5138257;27;20126;-70
2022/05/19 03:16:32;;;;;;;71.80;51.63;;;16.10;99.90;;;;;;5120010;27;20043;-69
2022/05/19 03:18:58;;;;;;;75.53;52.25;;;16.20;99.90;;;;;;5119778;27;20062;-71
2022/05/19 03:21:23;;;;;;;74.15;53.05;;;16.00;99.90;;;;;;5138008;27;20043;-70
2022/05/19 03:23:49;;;;;;;71.70;49.67;;;16.00;99.90;;;;;;5137856;27;20047;-71
2022/05/19 03:26:15;;;;;;;67.82;51.35;;;16.00;99.90;;;;;;5137940;27;20508;-69
2022/05/19 03:28:40;;;;;;;76.53;52.85;;;16.00;99.90;;;;;;5137711;27;20043;-69
2022/05/19 03:31:08;;;;;;;73.35;53.55;;;16.00;99.90;;;;;;5119927;27;20516;-71
2022/05/19 03:33:35;;;;;;;78.68;52.47;;;16.00;99.90;;;;;;5119730;27;20409;-69
2022/05/19 03:36:02;;;;;;;69.72;50.08;;;16.10;99.90;;;;;;5137743;27;20172;-69
2022/05/19 03:38:28;;;;;;;68.82;51.25;;;16.00;99.90;;;;;;5137614;27;20058;-70
2022/05/19 03:40:54;;;;;;;72.25;50.67;;;16.00;99.90;;;;;;5137707;27;20398;-68
2022/05/19 03:43:20;;;;;;;63.20;49.78;;;16.00;99.90;;;;;;5137542;27;20381;-70
2022/05/19 03:45:46;;;;;;;66.05;50.15;;;16.00;99.90;;;;;;5119606;27;20054;-72
2022/05/19 03:48:12;;;;;;;70.20;52.17;;;16.00;99.90;;;;;;5137603;27;20070;-71
2022/05/19 03:50:38;;;;;;;72.68;52.10;;;16.00;99.90;;;;;;5137540;27;20473;-71
2022/05/19 03:53:04;;;;;;;66.97;52.78;;;16.00;99.90;;;;;;5137425;27;20473;-70
2022/05/19 03:55:30;;;;;;;;;;;16.00;99.90;;;;;;5119237;27;20094;-70
2022/05/19 03:57:56;;;;;;;71.82;51.80;;;16.00;99.90;;;;;;5137195;27;19977;-71
2022/05/19 04:00:22;;;;;;;71.22;52.30;;;16.00;99.90;;;;;;5137102;27;20409;-70
2022/05/19 04:02:47;;;;;;;68.10;52.75;;;16.00;99.90;;;;;;5137324;27;20043;-72
2022/05/19 04:05:14;;;;;;;73.30;51.45;;;16.00;99.90;;;;;;5137312;27;20100;-69
2022/05/19 04:07:41;;;;;;;73.57;50.55;;;16.00;99.90;;;;;;5136943;27;20042;-69
2022/05/19 04:10:08;;;;;;;69.13;52.10;;;16.10;99.90;;;;;;5136369;27;20503;-70
2022/05/19 04:12:35;;;;;;;71.85;51.50;;;16.10;99.90;;;;;;5118842;27;20050;-69
2022/05/19 04:15:01;;;;;;;71.20;53.05;;;16.10;99.90;;;;;;5119014;27;20076;-71
2022/05/19 04:17:32;;;;;;;73.35;54.60;;;16.20;99.90;;;;;;5137034;27;20054;-70
2022/05/19 04:19:59;;;;;;;73.53;54.30;;;16.20;99.90;;;;;;5118696;27;20051;-71
2022/05/19 04:22:25;;;;;;;71.13;53.55;;;16.20;99.90;;;;;;5136866;27;20394;-72
2022/05/19 04:24:51;;;;;;;71.47;52.45;;;16.20;99.90;;;;;;5136766;27;20046;-71
2022/05/19 04:27:16;;;;;;;72.43;53.60;;;16.20;99.90;;;;;;5152921;27;20058;-70
2022/05/19 04:29:42;;;;;;;67.15;50.58;;;16.20;99.90;;;;;;5136950;27;20054;-72
2022/05/19 04:32:08;;;;;;;69.55;50.83;;;16.30;99.90;;;;;;5136782;27;20039;-69
2022/05/19 04:34:34;;;;;;;73.35;50.53;;;16.20;99.90;;;;;;5136665;27;20043;-70
2022/05/19 04:36:59;;;;;;;69.68;52.30;;;16.30;99.90;;;;;;5118567;27;20134;-71
2022/05/19 04:39:25;;;;;;;70.05;52.83;;;16.30;99.90;;;;;;5136377;27;20446;-70
2022/05/19 04:41:51;;;;;;;72.50;53.58;;;16.30;99.90;;;;;;5136092;27;20051;-72
2022/05/19 04:44:20;;;;;;;73.18;53.30;;;16.40;99.90;;;;;;5136561;27;20043;-70
2022/05/19 04:46:46;;;;;;;70.85;49.22;;;16.40;99.90;;;;;;5118409;27;20047;-70
2022/05/19 04:49:12;;;;;;;72.88;53.40;;;16.40;99.90;;;;;;5118038;27;20554;-70
2022/05/19 04:51:37;;;;;;;66.70;50.95;;;16.30;99.90;;;;;;5118226;27;20397;-69
2022/05/19 04:54:03;;;;;;;70.45;49.90;;;16.40;99.90;;;;;;5118024;27;20524;-69
2022/05/19 04:56:30;;;;;;;68.15;52.30;;;16.40;99.90;;;;;;5136103;27;20039;-71
2022/05/19 04:58:56;;;;;;;73.90;52.58;;;16.50;99.90;;;;;;5135994;27;20040;-70
2022/05/19 05:01:22;;;;;;;68.20;51.30;;;16.40;99.90;;;;;;5152351;27;20427;-70
2022/05/19 05:03:48;;;;;;;66.88;51.25;;;16.50;99.90;;;;;;5136032;27;20047;-71
2022/05/19 05:06:14;;;;;;;56.88;49.08;;;16.50;99.90;;;;;;5136085;27;20043;-69
2022/05/19 05:08:39;;;;;;;60.35;48.67;;;16.50;99.90;;;;;;5135888;27;20473;-71
2022/05/19 05:11:05;;;;;;;62.10;51.60;;;16.60;99.90;;;;;;5135791;27;20035;-70
2022/05/19 05:13:31;;;;;;;66.68;52.50;;;16.60;99.90;;;;;;5135742;27;20375;-70
2022/05/19 05:15:58;;;;;;;65.32;49.92;;;16.60;99.90;;;;;;5117776;27;20049;-70
2022/05/19 05:18:24;;;;;;;67.68;53.05;;;16.70;99.90;;;;;;5135872;27;20084;-69
2022/05/19 05:20:50;;;;;;;64.43;51.42;;;16.70;99.90;;;;;;5134562;27;20431;-71
2022/05/19 05:23:15;;;;;;;61.67;49.08;;;16.80;99.90;;;;;;5135660;27;20103;-69
2022/05/19 05:25:41;;;;;;;69.35;51.67;;;16.80;99.90;;;;;;5117468;27;20050;-70
2022/05/19 05:28:07;;;;;;;66.18;52.78;;;16.80;99.90;;;;;;5135409;27;20405;-70
2022/05/19 05:30:33;;;;;;;64.25;51.97;;;16.90;99.90;;;;;;5135757;27;20393;-72
2022/05/19 05:33:04;;;;;;;67.32;50.92;;;17.00;99.90;;;;;;5117468;27;20111;-69
2022/05/19 05:35:29;;;;;;;66.40;50.03;;;17.00;99.90;;;;;;5100331;27;20046;-70
2022/05/19 05:37:55;;;;;;;62.75;48.92;;;17.10;99.90;;;;;;5151766;27;20043;-69
2022/05/19 05:40:20;;;;;;;61.75;46.38;;;17.10;99.90;;;;;;5135352;27;20066;-72
2022/05/19 05:42:46;;;;;;;58.00;47.08;;;17.20;99.90;;;;;;5135145;27;20055;-71
2022/05/19 05:45:12;;;;;;;52.58;44.88;;;17.20;99.90;;;;;;5135041;27;20515;-70
2022/05/19 05:47:37;;;;;;;53.80;42.90;;;17.20;99.90;;;;;;5117297;27;20564;-71
2022/05/19 05:50:04;;;;;;;60.60;43.33;;;17.30;99.90;;;;;;5135239;27;20039;-70
2022/05/19 05:52:30;;;;;;;52.05;40.70;;;17.30;99.90;;;;;;5135101;27;20129;-70
2022/05/19 05:54:58;;;;;;;46.28;38.13;;;17.40;99.90;;;;;;5134987;27;20150;-71
2022/05/19 05:57:25;;;;;;;48.75;39.53;;;17.40;99.90;;;;;;5134945;27;20042;-70
2022/05/19 05:59:50;;;;;;;;;;;17.50;99.90;;;;;;5135338;27;20047;-69
2022/05/19 06:02:16;;;;;;;40.63;32.55;;;17.60;99.90;;;;;;5134961;27;20328;-70
2022/05/19 06:04:42;;;;;;;39.22;32.83;;;17.60;99.90;;;;;;5116900;27;20047;-70
2022/05/19 06:07:07;;;;;;;41.17;31.98;;;17.70;99.90;;;;;;5134894;27;20126;-71
2022/05/19 06:09:33;;;;;;;39.30;31.58;;;17.70;99.90;;;;;;5116510;27;20050;-72
2022/05/19 06:11:59;;;;;;;38.40;30.10;;;17.80;99.90;;;;;;5150758;27;20092;-71
2022/05/19 06:14:24;;;;;;;37.45;29.77;;;17.90;99.90;;;;;;5134551;27;20054;-71
2022/05/19 06:16:50;;;;;;;42.90;27.90;;;18.00;99.90;;;;;;5115766;27;20103;-69
2022/05/19 06:19:18;;;;;;;30.85;25.42;;;18.00;99.90;;;;;;5116684;27;20051;-69
2022/05/19 06:21:43;;;;;;;34.03;25.27;;;18.10;99.90;;;;;;5116316;27;20118;-72
2022/05/19 06:24:09;;;;;;;28.70;25.50;;;18.20;99.90;;;;;;5133052;27;20126;-69
2022/05/19 06:26:37;;;;;;;25.90;23.20;;;18.30;99.90;;;;;;5150491;27;20168;-71
2022/05/19 06:29:03;;;;;;;30.25;22.77;;;18.40;99.90;;;;;;5134291;27;20070;-71
2022/05/19 06:31:30;;;;;;;29.13;24.45;;;18.40;99.90;;;;;;5134211;27;20497;-70
2022/05/19 06:33:56;;;;;;;30.95;23.90;;;18.60;99.90;;;;;;5134346;27;20568;-70
2022/05/19 06:36:21;;;;;;;29.20;22.88;;;18.70;99.90;;;;;;5134454;27;20112;-69
2022/05/19 06:39:03;;;;;;;30.13;22.48;;;18.70;99.90;;;;;;5116010;28;20135;-70
2022/05/19 06:44:17;;;;;;;32.38;25.27;;;18.80;99.90;;;;;;5134338;27;20070;-69
2022/05/19 06:46:44;;;;;;;31.52;24.35;;;18.90;99.90;;;;;;5134238;27;20130;-72
2022/05/19 06:49:10;;;;;;;31.00;25.60;;;18.90;99.90;;;;;;5116168;28;20386;-70
2022/05/19 06:51:36;;;;;;;30.75;25.08;;;18.80;99.90;;;;;;5134155;28;20039;-69
2022/05/19 06:54:04;;;;;;;31.80;25.92;;;18.90;99.90;;;;;;5133895;28;20126;-71
2022/05/19 06:56:29;;;;;;;30.83;25.17;;;18.90;99.90;;;;;;5116029;27;20047;-70
2022/05/19 06:58:56;;;;;;;34.10;26.23;;;18.90;99.90;;;;;;5134319;28;20039;-72
2022/05/19 07:01:22;;;;;;;33.75;25.73;;;18.90;99.90;;;;;;5115599;28;20087;-70
2022/05/19 07:03:48;;;;;;;;;;;19.00;99.90;;;;;;5150746;27;20039;-71
2022/05/19 07:06:14;;;;;;;29.40;23.75;;;19.00;99.90;;;;;;5134085;28;19926;-71
2022/05/19 07:08:40;;;;;;;30.90;24.23;;;19.10;99.90;;;;;;5150299;27;20123;-72
2022/05/19 07:11:24;;;;;;;25.85;20.00;;;19.20;99.90;;;;;;5150165;27;20055;-69
2022/05/19 07:13:51;;;;;;;21.27;16.95;;;19.20;99.90;;;;;;5135765;27;20051;-72
2022/05/19 07:16:17;;;;;;;25.60;18.13;;;19.40;99.90;;;;;;5153798;27;20046;-72
2022/05/19 07:18:43;;;;;;;21.25;17.20;;;19.40;99.90;;;;;;5153596;27;20050;-71
2022/05/19 07:21:09;;;;;;;27.52;18.33;;;19.50;99.90;;;;;;5152812;27;20046;-71
2022/05/19 07:23:36;;;;;;;26.25;21.13;;;19.50;99.90;;;;;;5151928;27;20405;-70
2022/05/19 07:26:02;;;;;;;27.92;18.83;;;19.60;99.90;;;;;;5154647;27;20039;-71
2022/05/19 07:28:27;;;;;;;22.23;17.75;;;19.60;99.90;;;;;;5171234;27;20053;-70
2022/05/19 07:30:53;;;;;;;24.08;19.55;;;19.60;99.90;;;;;;5135916;27;20058;-73
2022/05/19 07:33:19;;;;;;;24.10;19.38;;;19.70;99.90;;;;;;5154594;27;20039;-71
2022/05/19 07:35:49;;;;;;;24.83;19.65;;;19.70;99.90;;;;;;5154540;27;20039;-71
2022/05/19 07:38:15;;;;;;;26.52;20.23;;;19.70;99.90;;;;;;5154509;27;20420;-71
2022/05/19 07:40:41;;;;;;;;;;;19.80;99.90;;;;;;5154745;27;20046;-71
2022/05/19 07:45:52;;;;;;;22.23;18.17;;;19.80;99.90;;;;;;5158360;27;20093;-71
2022/05/19 07:48:17;;;;;;;24.15;18.40;;;19.90;99.90;;;;;;5174697;27;20082;-70
2022/05/19 07:50:43;;;;;;;24.30;18.95;;;19.90;99.90;;;;;;5158283;27;20043;-69
2022/05/19 07:53:09;;;;;;;24.60;17.65;;;20.00;99.90;;;;;;5139611;27;20082;-69
2022/05/19 07:55:36;;;;;;;22.95;18.58;;;20.00;99.90;;;;;;5158142;27;20038;-68
2022/05/19 07:58:03;;;;;;;19.35;17.23;;;20.10;99.90;;;;;;5158149;27;20099;-70
2022/05/19 08:00:29;;;;;;;20.23;15.50;;;20.10;99.90;;;;;;5139664;27;20053;-72
2022/05/19 08:02:54;;;;;;;20.52;16.40;;;20.20;99.90;;;;;;5157936;27;20393;-69
2022/05/19 08:05:20;;;;;;;20.33;16.80;;;20.20;99.90;;;;;;5157828;27;20054;-70
2022/05/19 08:07:46;;;;;;;24.33;18.00;;;20.20;99.90;;;;;;5157841;27;20046;-72
2022/05/19 08:10:20;;;;;;;;;;;20.30;99.90;;;;;;5158238;27;20050;-70
2022/05/19 08:15:36;;;;;;;23.17;19.73;;;20.30;99.90;;;;;;5157660;27;20053;-71
2022/05/19 08:18:15;;;;;;;24.70;19.85;;;20.30;99.90;;;;;;5157641;27;20496;-69
2022/05/19 08:20:44;;;;;;;22.63;18.10;;;20.30;99.90;;;;;;5157726;27;20042;-70
2022/05/19 08:23:17;;;;;;;24.38;19.80;;;20.30;99.90;;;;;;5157628;27;20050;-70
2022/05/19 08:25:43;;;;;;;24.10;19.63;;;20.30;99.90;;;;;;5157482;27;20039;-69
2022/05/19 08:28:09;;;;;;;;;;;20.30;99.90;;;;;;5157564;27;20507;-70
2022/05/19 08:30:36;;;;;;;22.55;16.90;;;20.30;99.90;;;;;;5157271;27;19919;-70
2022/05/19 08:33:06;;;;;;;17.92;16.00;;;20.20;99.90;;;;;;5157258;27;20043;-69
2022/05/19 08:35:31;;;;;;;24.17;17.10;;;20.20;99.90;;;;;;5157464;27;20038;-72
2022/05/19 08:37:57;;;;;;;23.30;19.00;;;20.10;99.90;;;;;;5173799;27;20519;-72
2022/05/19 08:40:22;;;;;;;;;;;20.00;99.90;;;;;;5157480;27;20054;-73
2022/05/19 08:42:55;;;;;;;23.05;20.10;;;19.90;99.90;;;;;;5156848;27;19923;-72
2022/05/19 08:45:33;;;;;;;24.77;21.02;;;19.90;99.90;;;;;;5157568;27;20046;-70
2022/05/19 08:48:06;;;;;;;23.17;20.80;;;19.80;99.90;;;;;;5157253;27;20407;-70
2022/05/19 08:50:52;;;;;;;25.80;22.30;;;19.70;99.90;;;;;;5157170;27;20038;-70
2022/05/19 08:53:18;;;;;;;24.58;21.48;;;19.60;99.90;;;;;;5156483;27;20059;-70
2022/05/19 08:55:50;;;;;;;26.15;21.40;;;19.50;99.90;;;;;;5156639;27;20095;-70
2022/05/19 08:58:27;;;;;;;27.90;23.15;;;19.40;99.90;;;;;;5138303;27;20043;-73
2022/05/19 09:00:58;;;;;;;27.40;21.98;;;19.30;99.90;;;;;;5138509;27;20089;-74
2022/05/19 09:03:29;;;;;;;24.42;21.92;;;19.30;99.90;;;;;;5156879;27;20078;-72
2022/05/19 09:06:03;;;;;;;27.45;22.10;;;19.30;99.90;;;;;;5156719;27;20051;-70
2022/05/19 09:08:49;;;;;;;23.63;20.48;;;19.30;99.90;;;;;;5156648;27;20047;-71
2022/05/19 09:11:18;;;;;;;23.50;20.55;;;19.20;99.90;;;;;;5138417;27;20365;-70
2022/05/19 09:14:10;;;;;;;24.42;21.02;;;19.20;99.90;;;;;;5156678;27;20047;-70
2022/05/19 09:16:39;;;;;;;30.95;21.92;;;19.20;99.90;;;;;;5138158;27;20047;-72
2022/05/19 09:19:20;;;;;;;26.58;22.20;;;19.20;99.90;;;;;;5156428;27;20065;-70
2022/05/19 09:21:56;;;;;;;33.75;26.55;;;19.30;99.90;;;;;;5156497;27;20464;-70
2022/05/19 09:24:40;;;;;;;31.15;26.85;;;19.30;99.90;;;;;;5137437;27;20117;-70
2022/05/19 09:27:06;;;;;;;31.08;26.17;;;19.30;99.90;;;;;;5156316;27;20104;-70
2022/05/19 09:29:51;;;;;;;31.95;27.35;;;19.30;99.90;;;;;;5156164;27;20046;-70
2022/05/19 09:32:34;;;;;;;36.88;30.52;;;19.30;99.90;;;;;;5156379;27;20043;-70
2022/05/19 09:47:53;;;;;;;34.80;29.20;;;19.40;99.90;;;;;;5111020;27;20404;-71
2022/05/19 09:50:25;;;;;;;34.28;30.35;;;19.70;99.90;;;;;;5110867;28;20419;-73
2022/05/19 09:53:00;;;;;;;38.85;30.35;;;19.70;99.90;;;;;;5110587;28;20156;-74
2022/05/19 09:55:27;;;;;;;31.13;27.83;;;19.60;99.90;;;;;;5110824;28;20040;-70
2022/05/19 09:57:56;;;;;;;31.02;26.92;;;19.70;99.90;;;;;;5110859;28;20048;-70
2022/05/19 10:00:49;;;;;;;32.70;28.30;;;19.70;99.90;;;;;;5110694;28;20087;-72
2022/05/19 10:03:22;;;;;;;32.97;27.90;;;19.80;99.90;;;;;;5110592;28;20093;-70
2022/05/19 10:05:50;;;;;;;32.97;27.55;;;19.80;99.90;;;;;;5110783;28;20044;-70
2022/05/19 10:08:26;;;;;;;29.45;25.95;;;19.80;99.90;;;;;;5110869;28;20047;-71
2022/05/19 10:24:24;;;;;;;32.13;28.63;;;19.90;99.90;;;;;;5110170;27;20981;-75
2022/05/19 10:33:20;;;;;;;29.25;25.90;;;20.30;99.90;;;;;;5110624;28;20130;-75
2022/05/19 10:36:22;;;;;;;27.75;24.75;;;20.30;99.90;;;;;;5099307;28;20496;-76
2022/05/19 10:39:20;;;;;;;27.17;24.27;;;20.30;99.90;;;;;;5110123;28;20056;-75
2022/05/19 10:42:07;;;;;;;27.95;24.98;;;20.30;99.90;;;;;;5110190;28;20487;-75
2022/05/19 10:45:04;;;;;;;29.85;26.08;;;20.30;99.90;;;;;;5092258;28;20051;-74
2022/05/19 10:47:46;;;;;;;34.65;27.05;;;20.30;99.90;;;;;;5110204;28;20055;-75
2022/05/19 10:50:11;;;;;;;34.25;28.55;;;20.40;99.90;;;;;;5110290;28;20453;-75
2022/05/19 10:52:55;;;;;;;31.55;27.98;;;20.40;99.90;;;;;;5109973;28;20050;-75
2022/05/19 10:55:43;;;;;;;32.42;27.95;;;20.40;99.90;;;;;;5109998;28;20040;-75
2022/05/19 10:58:16;;;;;;;;;;;20.50;99.90;;;;;;5092762;28;20125;-75
2022/05/19 11:01:03;;;;;;;32.15;27.08;;;20.50;99.90;;;;;;5110114;28;19989;-75
2022/05/19 11:03:40;;;;;;;31.00;27.63;;;20.60;99.90;;;;;;5110051;28;20499;-76
2022/05/19 11:06:22;;;;;;;33.13;28.15;;;20.60;99.90;;;;;;5109920;28;20055;-75
2022/05/19 11:09:13;;;;;;;32.50;28.90;;;20.70;99.90;;;;;;5110040;28;20051;-75
2022/05/19 11:12:08;;;;;;;31.38;27.08;;;20.80;99.90;;;;;;5109829;28;20054;-76
2022/05/19 11:14:53;;;;;;;28.52;24.38;;;20.90;99.90;;;;;;5105417;28;20055;-75
2022/05/19 11:17:38;;;;;;;30.05;22.80;;;21.00;99.90;;;;;;5109803;28;20104;-75
2022/05/19 11:20:18;;;;;;;32.33;22.95;;;21.10;99.90;;;;;;5091856;28;20127;-74
2022/05/19 11:22:49;;;;;;;23.92;19.48;;;21.20;99.90;;;;;;5109563;28;20364;-74
2022/05/19 11:28:38;;;;;;;26.30;20.98;;;21.30;99.90;;;;;;5096010;28;20424;-76
2022/05/19 11:31:19;;;;;;;22.80;18.92;;;21.40;99.90;;;;;;5095898;28;20058;-76
2022/05/19 11:33:50;;;;;;;24.65;19.65;;;21.40;99.90;;;;;;5095736;28;20105;-76
2022/05/19 11:36:41;;;;;;;19.30;17.30;;;21.50;99.90;;;;;;5061378;28;20044;-75
2022/05/19 11:39:33;;;;;;;20.95;16.40;;;21.60;99.90;;;;;;5095752;28;20044;-75
2022/05/19 11:42:27;;;;;;;17.70;15.88;;;21.70;99.90;;;;;;5095574;28;20043;-76
2022/05/19 11:44:53;;;;;;;20.20;16.80;;;21.80;99.90;;;;;;5095923;28;20465;-75
2022/05/19 11:55:55;;;;;;;17.63;13.50;;;22.20;99.90;;;;;;5094952;28;20082;-75
2022/05/19 11:58:27;;;;;;;;;;;22.20;99.90;;;;;;5061183;28;20052;-75
2022/05/19 12:01:01;;;;;;;14.55;11.00;;;22.30;99.90;;;;;;5095341;28;19920;-75
2022/05/19 12:04:08;;;;;;;17.33;12.80;;;22.40;99.90;;;;;;5095508;28;20044;-75
2022/05/19 12:07:11;;;;;;;11.82;9.93;;;22.50;99.90;;;;;;5095381;28;20044;-76
2022/05/19 12:09:39;;;;;;;15.65;12.32;;;22.60;99.90;;;;;;5013228;28;20568;-75
2022/05/19 12:12:24;;;;;;;14.82;10.15;;;22.80;99.90;;;;;;5012774;28;20172;-75
2022/05/19 12:15:15;;;;;;;13.40;10.82;;;22.80;99.90;;;;;;5013001;28;20518;-75
2022/05/19 12:17:59;;;;;;;11.93;9.93;;;22.90;99.90;;;;;;5012977;28;20098;-75
2022/05/19 12:20:33;;;;;;;13.25;8.77;;;23.00;99.90;;;;;;5012936;28;20115;-75
2022/05/19 12:23:29;;;;;;;12.57;10.43;;;23.00;99.90;;;;;;5012466;28;20093;-75
2022/05/19 12:25:59;;;;;;;9.90;7.28;;;23.10;99.90;;;;;;5012730;28;20132;-75
2022/05/19 12:28:38;;;;;;;6.63;5.38;;;23.10;99.90;;;;;;5012884;28;20512;-76
2022/05/19 12:34:01;;;;;;;11.15;5.65;;;23.10;99.90;;;;;;5012733;28;20057;-76
2022/05/19 12:36:30;;;;;;;9.45;5.57;;;23.10;99.90;;;;;;5011723;28;20407;-76
2022/05/19 12:39:10;;;;;;;7.95;5.20;;;23.10;99.90;;;;;;4996304;28;20057;-76
2022/05/19 12:41:55;;;;;;;5.50;4.00;;;23.10;99.90;;;;;;4995915;28;20496;-75
2022/05/19 12:44:35;;;;;;;7.38;4.90;;;23.10;99.90;;;;;;5012564;28;20061;-75
2022/05/19 12:47:20;;;;;;;5.82;4.05;;;23.20;99.90;;;;;;5092437;28;20063;-76
2022/05/19 12:50:01;;;;;;;6.50;3.88;;;23.20;99.90;;;;;;5076876;28;20055;-75
2022/05/19 12:52:52;;;;;;;5.35;3.63;;;23.10;99.90;;;;;;5094471;28;20047;-75
2022/05/19 12:55:42;;;;;;;6.13;4.55;;;23.10;99.90;;;;;;5076532;28;20047;-75
2022/05/19 12:58:43;;;;;;;5.43;4.20;;;23.20;99.90;;;;;;5094603;28;20055;-73
2022/05/19 13:01:32;;;;;;;7.97;4.53;;;23.10;99.90;;;;;;5094299;28;20101;-75
2022/05/19 13:04:30;;;;;;;3.85;3.20;;;23.10;99.90;;;;;;5094089;28;20488;-75
2022/05/19 13:07:02;;;;;;;5.65;4.00;;;23.00;99.90;;;;;;5094300;28;20590;-75
2022/05/19 13:09:34;;;;;;;5.38;3.72;;;23.00;99.90;;;;;;5094216;28;20126;-75
2022/05/19 13:12:10;;;;;;;6.22;3.88;;;23.00;99.90;;;;;;5075700;28;20043;-75
2022/05/19 13:14:43;;;;;;;4.32;2.30;;;23.00;99.90;;;;;;5094215;28;20116;-75
2022/05/19 13:17:39;;;;;;;3.97;2.97;;;23.00;99.90;;;;;;5094086;28;20043;-75
2022/05/19 13:20:32;;;;;;;5.05;3.15;;;23.00;99.90;;;;;;5093298;28;20450;-75
2022/05/19 13:23:02;;;;;;;5.20;3.53;;;23.00;99.90;;;;;;5093068;28;20055;-75
2022/05/19 13:25:42;;;;;;;3.70;2.65;;;23.00;99.90;;;;;;5093697;28;20102;-75
2022/05/19 13:31:18;;;;;;;6.40;2.95;;;22.90;99.90;;;;;;5092339;28;20059;-75
2022/05/19 13:33:46;;;;;;;4.57;2.55;;;22.90;99.90;;;;;;5094122;28;20136;-75
2022/05/19 13:36:12;;;;;;;3.42;2.58;;;22.90;99.90;;;;;;5093832;28;20079;-75
2022/05/19 13:38:38;;;;;;;5.20;2.30;;;22.80;99.90;;;;;;5075067;28;20055;-75
2022/05/19 13:41:08;;;;;;;3.33;1.95;;;22.80;99.90;;;;;;5093437;28;20056;-75
2022/05/19 13:43:48;;;;;;;5.55;2.70;;;22.80;99.90;;;;;;5074302;28;20458;-75
2022/05/19 13:46:20;;;;;;;8.82;3.00;;;22.70;99.90;;;;;;5092145;28;20496;-75
2022/05/19 13:48:59;;;;;;;10.20;5.15;;;22.60;99.90;;;;;;5093562;28;20058;-73
2022/05/19 13:51:44;;;;;;;13.18;5.15;;;22.20;99.90;;;;;;5093277;28;20483;-72
2022/05/19 13:54:24;;;;;;;16.92;9.00;;;21.60;99.90;;;;;;5093296;28;20062;-74
2022/05/19 13:56:58;;;;;;;11.70;8.40;;;21.00;99.90;;;;;;5093456;28;20083;-74